sensor_id;sensor_type;location;lat;lon;timestamp;pressure;altitude;pressure_sealevel;temperature;humidity
16120;BME280;12670;53.502;10.252;2023-04-30T00:03:02;101877.50;;;8.06;80.89
16120;BME280;12670;53.502;10.252;2023-04-30T00:06:05;101874.88;;;8.03;80.88
16120;BME280;12670;53.502;10.252;2023-04-30T00:09:08;101876.78;;;7.93;81.33
16120;BME280;12670;53.502;10.252;2023-04-30T00:12:12;101882.28;;;7.77;82.50
16120;BME280;12670;53.502;10.252;2023-04-30T00:15:15;101884.06;;;7.74;82.69
16120;BME280;12670;53.502;10.252;2023-04-30T00:18:18;101893.69;;;7.79;82.64
16120;BME280;12670;53.502;10.252;2023-04-30T00:21:20;101890.94;;;7.88;82.00
16120;BME280;12670;53.502;10.252;2023-04-30T00:24:24;101892.06;;;7.67;82.20
16120;BME280;12670;53.502;10.252;2023-04-30T00:27:28;101899.16;;;7.62;82.66
16120;BME280;12670;53.502;10.252;2023-04-30T00:30:31;101898.44;;;7.49;83.43
16120;BME280;12670;53.502;10.252;2023-04-30T00:33:34;101900.06;;;7.62;83.38
16120;BME280;12670;53.502;10.252;2023-04-30T00:36:37;101898.44;;;7.49;84.21
16120;BME280;12670;53.502;10.252;2023-04-30T00:39:39;101902.00;;;7.43;84.11
16120;BME280;12670;53.502;10.252;2023-04-30T00:42:44;101917.13;;;7.29;83.75
16120;BME280;12670;53.502;10.252;2023-04-30T00:45:46;101921.63;;;7.18;85.20
16120;BME280;12670;53.502;10.252;2023-04-30T00:48:49;101915.50;;;7.16;84.84
16120;BME280;12670;53.502;10.252;2023-04-30T00:51:53;101912.84;;;7.14;85.69
16120;BME280;12670;53.502;10.252;2023-04-30T00:54:55;101916.38;;;7.16;85.00
16120;BME280;12670;53.502;10.252;2023-04-30T00:58:00;101918.13;;;7.14;86.02
16120;BME280;12670;53.502;10.252;2023-04-30T01:01:03;101922.63;;;7.05;86.45
16120;BME280;12670;53.502;10.252;2023-04-30T01:04:07;101928.78;;;7.05;86.30
16120;BME280;12670;53.502;10.252;2023-04-30T01:07:09;101934.16;;;6.93;85.68
16120;BME280;12670;53.502;10.252;2023-04-30T01:10:13;101930.56;;;6.97;86.18
16120;BME280;12670;53.502;10.252;2023-04-30T01:13:23;101935.84;;;6.97;86.55
16120;BME280;12670;53.502;10.252;2023-04-30T01:16:32;101937.69;;;6.92;86.37
16120;BME280;12670;53.502;10.252;2023-04-30T01:19:40;101941.22;;;6.88;87.12
16120;BME280;12670;53.502;10.252;2023-04-30T01:22:46;101932.38;;;6.95;85.98
16120;BME280;12670;53.502;10.252;2023-04-30T01:25:59;101936.84;;;6.84;86.44
16120;BME280;12670;53.502;10.252;2023-04-30T01:29:09;101932.50;;;6.77;87.33
16120;BME280;12670;53.502;10.252;2023-04-30T01:32:13;101933.31;;;6.86;86.20
16120;BME280;12670;53.502;10.252;2023-04-30T01:35:16;101935.13;;;6.78;87.78
16120;BME280;12670;53.502;10.252;2023-04-30T01:38:24;101939.47;;;6.84;87.45
16120;BME280;12670;53.502;10.252;2023-04-30T01:41:33;101941.31;;;6.76;87.86
16120;BME280;12670;53.502;10.252;2023-04-30T01:44:53;101942.28;;;6.64;87.20
16120;BME280;12670;53.502;10.252;2023-04-30T01:48:05;101936.13;;;6.60;87.69
16120;BME280;12670;53.502;10.252;2023-04-30T01:51:15;101944.06;;;6.59;88.71
16120;BME280;12670;53.502;10.252;2023-04-30T01:54:26;101945.78;;;6.63;87.92
16120;BME280;12670;53.502;10.252;2023-04-30T01:57:33;101959.00;;;6.55;88.05
16120;BME280;12670;53.502;10.252;2023-04-30T02:00:40;101951.97;;;6.54;88.07
16120;BME280;12670;53.502;10.252;2023-04-30T02:03:42;101962.53;;;6.54;88.12
16120;BME280;12670;53.502;10.252;2023-04-30T02:06:45;101967.00;;;6.38;88.95
16120;BME280;12670;53.502;10.252;2023-04-30T02:09:48;101963.53;;;6.32;88.46
16120;BME280;12670;53.502;10.252;2023-04-30T02:12:50;101966.13;;;6.41;88.40
16120;BME280;12670;53.502;10.252;2023-04-30T02:15:55;101963.53;;;6.26;89.29
16120;BME280;12670;53.502;10.252;2023-04-30T02:18:57;101972.34;;;6.28;89.89
16120;BME280;12670;53.502;10.252;2023-04-30T02:22:00;101964.41;;;6.31;89.51
16120;BME280;12670;53.502;10.252;2023-04-30T02:25:03;101964.44;;;6.20;89.55
16120;BME280;12670;53.502;10.252;2023-04-30T02:28:06;101976.75;;;6.21;89.75
16120;BME280;12670;53.502;10.252;2023-04-30T02:31:10;101974.13;;;6.15;89.57
16120;BME280;12670;53.502;10.252;2023-04-30T02:34:13;101978.53;;;6.14;89.92
16120;BME280;12670;53.502;10.252;2023-04-30T02:37:15;101977.69;;;6.11;90.99
16120;BME280;12670;53.502;10.252;2023-04-30T02:40:18;101976.81;;;6.07;89.62
16120;BME280;12670;53.502;10.252;2023-04-30T02:43:21;101983.81;;;6.08;89.46
16120;BME280;12670;53.502;10.252;2023-04-30T02:46:25;101979.47;;;5.95;90.20
16120;BME280;12670;53.502;10.252;2023-04-30T02:49:27;101981.22;;;5.88;91.63
16120;BME280;12670;53.502;10.252;2023-04-30T02:52:30;101984.75;;;5.92;91.35
16120;BME280;12670;53.502;10.252;2023-04-30T02:55:33;101979.47;;;5.92;90.22
16120;BME280;12670;53.502;10.252;2023-04-30T02:58:35;101985.59;;;5.85;90.81
16120;BME280;12670;53.502;10.252;2023-04-30T03:01:39;101986.53;;;5.75;91.98
16120;BME280;12670;53.502;10.252;2023-04-30T03:04:42;101987.38;;;5.80;91.61
16120;BME280;12670;53.502;10.252;2023-04-30T03:07:45;101991.75;;;5.79;90.45
16120;BME280;12670;53.502;10.252;2023-04-30T03:10:47;101992.66;;;5.78;90.09
16120;BME280;12670;53.502;10.252;2023-04-30T03:13:50;101986.53;;;5.61;90.69
16120;BME280;12670;53.502;10.252;2023-04-30T03:16:54;101988.28;;;5.60;91.05
16120;BME280;12670;53.502;10.252;2023-04-30T03:19:57;101990.91;;;5.76;90.92
16120;BME280;12670;53.502;10.252;2023-04-30T03:22:59;101994.41;;;5.81;90.07
16120;BME280;12670;53.502;10.252;2023-04-30T03:26:02;101996.22;;;5.57;91.24
16120;BME280;12670;53.502;10.252;2023-04-30T03:29:05;102001.47;;;5.53;92.71
16120;BME280;12670;53.502;10.252;2023-04-30T03:32:09;102009.38;;;5.53;91.75
16120;BME280;12670;53.502;10.252;2023-04-30T03:35:11;102003.19;;;5.61;91.22
16120;BME280;12670;53.502;10.252;2023-04-30T03:38:14;101999.69;;;5.62;90.67
16120;BME280;12670;53.502;10.252;2023-04-30T03:41:17;101992.69;;;5.52;91.82
16120;BME280;12670;53.502;10.252;2023-04-30T03:44:20;102001.47;;;5.42;91.57
16120;BME280;12670;53.502;10.252;2023-04-30T03:47:24;102012.00;;;5.51;92.01
16120;BME280;12670;53.502;10.252;2023-04-30T03:50:27;102010.22;;;5.50;92.26
16120;BME280;12670;53.502;10.252;2023-04-30T03:53:30;102008.50;;;5.58;91.88
16120;BME280;12670;53.502;10.252;2023-04-30T03:56:32;102013.75;;;5.43;92.45
16120;BME280;12670;53.502;10.252;2023-04-30T03:59:35;102005.84;;;5.65;90.96
16120;BME280;12670;53.502;10.252;2023-04-30T04:02:39;102016.38;;;5.69;91.21
16120;BME280;12670;53.502;10.252;2023-04-30T04:05:42;102020.78;;;5.59;90.66
16120;BME280;12670;53.502;10.252;2023-04-30T04:08:45;102025.16;;;5.44;91.29
16120;BME280;12670;53.502;10.252;2023-04-30T04:11:48;102017.28;;;5.36;93.33
16120;BME280;12670;53.502;10.252;2023-04-30T04:14:50;102019.88;;;5.39;93.16
16120;BME280;12670;53.502;10.252;2023-04-30T04:17:54;102019.03;;;5.40;93.42
16120;BME280;12670;53.502;10.252;2023-04-30T04:20:57;102018.16;;;5.43;93.92
16120;BME280;12670;53.502;10.252;2023-04-30T04:23:59;102027.78;;;5.45;93.00
16120;BME280;12670;53.502;10.252;2023-04-30T04:27:08;102027.78;;;5.39;93.05
16120;BME280;12670;53.502;10.252;2023-04-30T04:30:11;102029.53;;;5.43;94.42
16120;BME280;12670;53.502;10.252;2023-04-30T04:33:15;102032.19;;;5.48;93.61
16120;BME280;12670;53.502;10.252;2023-04-30T04:36:18;102031.31;;;5.52;94.20
16120;BME280;12670;53.502;10.252;2023-04-30T04:39:20;102043.59;;;5.60;93.38
16120;BME280;12670;53.502;10.252;2023-04-30T04:42:23;102035.69;;;5.60;93.99
16120;BME280;12670;53.502;10.252;2023-04-30T04:45:26;102046.22;;;5.59;94.04
16120;BME280;12670;53.502;10.252;2023-04-30T04:48:30;102042.69;;;5.66;94.79
16120;BME280;12670;53.502;10.252;2023-04-30T04:51:33;102044.44;;;5.69;94.39
16120;BME280;12670;53.502;10.252;2023-04-30T04:54:35;102053.22;;;5.78;95.28
16120;BME280;12670;53.502;10.252;2023-04-30T04:57:38;102052.34;;;5.84;94.58
16120;BME280;12670;53.502;10.252;2023-04-30T05:00:42;102057.63;;;5.96;94.58
16120;BME280;12670;53.502;10.252;2023-04-30T05:03:46;102063.75;;;5.97;94.99
16120;BME280;12670;53.502;10.252;2023-04-30T05:06:50;102061.13;;;6.01;94.11
16120;BME280;12670;53.502;10.252;2023-04-30T05:09:52;102069.00;;;6.12;94.67
16120;BME280;12670;53.502;10.252;2023-04-30T05:12:56;102069.00;;;6.20;94.41
16120;BME280;12670;53.502;10.252;2023-04-30T05:15:58;102062.81;;;6.31;93.91
16120;BME280;12670;53.502;10.252;2023-04-30T05:19:02;102068.06;;;6.45;94.97
16120;BME280;12670;53.502;10.252;2023-04-30T05:22:05;102072.34;;;6.66;93.69
16120;BME280;12670;53.502;10.252;2023-04-30T05:25:08;102080.22;;;6.74;93.17
16120;BME280;12670;53.502;10.252;2023-04-30T05:28:11;102081.97;;;6.81;93.30
16120;BME280;12670;53.502;10.252;2023-04-30T05:31:14;102090.63;;;7.03;92.36
16120;BME280;12670;53.502;10.252;2023-04-30T05:34:19;102077.34;;;7.15;91.55
16120;BME280;12670;53.502;10.252;2023-04-30T05:37:21;102086.09;;;7.25;89.72
16120;BME280;12670;53.502;10.252;2023-04-30T05:40:24;102085.13;;;7.38;90.30
16120;BME280;12670;53.502;10.252;2023-04-30T05:43:27;102085.91;;;7.54;88.70
16120;BME280;12670;53.502;10.252;2023-04-30T05:46:29;102091.06;;;7.67;87.33
16120;BME280;12670;53.502;10.252;2023-04-30T05:49:34;102099.72;;;7.85;86.63
16120;BME280;12670;53.502;10.252;2023-04-30T05:52:37;102094.38;;;7.92;83.43
16120;BME280;12670;53.502;10.252;2023-04-30T05:55:39;102102.09;;;8.12;84.54
16120;BME280;12670;53.502;10.252;2023-04-30T05:58:42;102108.22;;;8.17;82.32
16120;BME280;12670;53.502;10.252;2023-04-30T06:01:45;102103.66;;;8.32;80.19
16120;BME280;12670;53.502;10.252;2023-04-30T06:04:49;102109.81;;;8.35;78.88
16120;BME280;12670;53.502;10.252;2023-04-30T06:07:52;102109.56;;;8.60;78.94
16120;BME280;12670;53.502;10.252;2023-04-30T06:10:55;102111.59;;;8.36;75.59
16120;BME280;12670;53.502;10.252;2023-04-30T06:13:57;102116.72;;;8.51;75.00
16120;BME280;12670;53.502;10.252;2023-04-30T06:17:00;102104.16;;;8.69;75.76
16120;BME280;12670;53.502;10.252;2023-04-30T06:20:06;102103.88;;;8.92;74.27
16120;BME280;12670;53.502;10.252;2023-04-30T06:23:08;102109.91;;;9.03;73.26
16120;BME280;12670;53.502;10.252;2023-04-30T06:26:11;102108.88;;;9.13;72.16
16120;BME280;12670;53.502;10.252;2023-04-30T06:29:15;102104.53;;;9.09;71.69
16120;BME280;12670;53.502;10.252;2023-04-30T06:32:17;102117.84;;;9.03;70.23
16120;BME280;12670;53.502;10.252;2023-04-30T06:35:21;102117.78;;;9.09;70.11
16120;BME280;12670;53.502;10.252;2023-04-30T06:38:24;102131.28;;;9.49;67.80
16120;BME280;12670;53.502;10.252;2023-04-30T06:41:27;102125.59;;;9.17;66.17
16120;BME280;12670;53.502;10.252;2023-04-30T06:44:29;102132.34;;;9.38;67.45
16120;BME280;12670;53.502;10.252;2023-04-30T06:47:34;102129.75;;;9.34;65.71
16120;BME280;12670;53.502;10.252;2023-04-30T06:50:39;102129.25;;;9.10;66.27
16120;BME280;12670;53.502;10.252;2023-04-30T06:53:45;102126.94;;;9.47;65.12
16120;BME280;12670;53.502;10.252;2023-04-30T06:56:48;102134.19;;;9.91;60.61
16120;BME280;12670;53.502;10.252;2023-04-30T06:59:50;102135.59;;;10.10;60.37
16120;BME280;12670;53.502;10.252;2023-04-30T07:02:54;102128.94;;;10.39;59.52
16120;BME280;12670;53.502;10.252;2023-04-30T07:05:59;102137.34;;;10.11;59.25
16120;BME280;12670;53.502;10.252;2023-04-30T07:09:01;102134.63;;;10.16;60.82
16120;BME280;12670;53.502;10.252;2023-04-30T07:12:04;102144.78;;;9.89;58.10
16120;BME280;12670;53.502;10.252;2023-04-30T07:15:08;102142.00;;;9.99;59.67
16120;BME280;12670;53.502;10.252;2023-04-30T07:18:10;102143.41;;;10.18;60.17
16120;BME280;12670;53.502;10.252;2023-04-30T07:21:14;102138.28;;;9.55;58.90
16120;BME280;12670;53.502;10.252;2023-04-30T07:24:17;102151.97;;;9.83;58.04
16120;BME280;12670;53.502;10.252;2023-04-30T07:27:20;102142.63;;;9.59;58.05
16120;BME280;12670;53.502;10.252;2023-04-30T07:30:22;102144.06;;;10.34;59.04
16120;BME280;12670;53.502;10.252;2023-04-30T07:33:25;102144.84;;;10.37;57.86
16120;BME280;12670;53.502;10.252;2023-04-30T07:36:29;102143.25;;;10.29;56.11
16120;BME280;12670;53.502;10.252;2023-04-30T07:39:32;102145.63;;;10.46;56.98
16120;BME280;12670;53.502;10.252;2023-04-30T07:42:35;102146.41;;;10.51;55.98
16120;BME280;12670;53.502;10.252;2023-04-30T07:45:37;102149.59;;;10.68;55.51
16120;BME280;12670;53.502;10.252;2023-04-30T07:48:40;102140.91;;;11.02;54.69
16120;BME280;12670;53.502;10.252;2023-04-30T07:51:44;102141.78;;;11.04;56.56
16120;BME280;12670;53.502;10.252;2023-04-30T07:54:47;102150.00;;;11.33;53.81
16120;BME280;12670;53.502;10.252;2023-04-30T07:57:50;102148.00;;;11.03;55.25
16120;BME280;12670;53.502;10.252;2023-04-30T08:00:52;102164.56;;;11.14;54.13
16120;BME280;12670;53.502;10.252;2023-04-30T08:03:55;102157.28;;;11.24;52.36
16120;BME280;12670;53.502;10.252;2023-04-30T08:06:59;102153.34;;;11.01;51.28
16120;BME280;12670;53.502;10.252;2023-04-30T08:10:03;102151.28;;;10.72;52.93
16120;BME280;12670;53.502;10.252;2023-04-30T08:13:06;102149.44;;;11.17;54.41
16120;BME280;12670;53.502;10.252;2023-04-30T08:16:08;102155.25;;;11.73;54.50
16120;BME280;12670;53.502;10.252;2023-04-30T08:19:11;102163.06;;;11.81;52.64
16120;BME280;12670;53.502;10.252;2023-04-30T08:22:15;102160.94;;;11.18;51.93
16120;BME280;12670;53.502;10.252;2023-04-30T08:25:18;102149.63;;;11.48;53.86
16120;BME280;12670;53.502;10.252;2023-04-30T08:28:21;102160.75;;;11.27;51.09
16120;BME280;12670;53.502;10.252;2023-04-30T08:31:23;102156.84;;;11.43;52.92
16120;BME280;12670;53.502;10.252;2023-04-30T08:34:26;102161.03;;;11.92;53.69
16120;BME280;12670;53.502;10.252;2023-04-30T08:37:30;102154.75;;;12.29;52.76
16120;BME280;12670;53.502;10.252;2023-04-30T08:40:34;102153.50;;;12.44;50.32
16120;BME280;12670;53.502;10.252;2023-04-30T08:43:52;102158.66;;;12.48;49.32
16120;BME280;12670;53.502;10.252;2023-04-30T08:46:55;102164.22;;;12.73;50.65
16120;BME280;12670;53.502;10.252;2023-04-30T08:49:59;102162.06;;;12.86;48.15
16120;BME280;12670;53.502;10.252;2023-04-30T08:53:03;102154.59;;;12.68;46.80
16120;BME280;12670;53.502;10.252;2023-04-30T08:56:08;102143.63;;;13.10;49.07
16120;BME280;12670;53.502;10.252;2023-04-30T08:59:12;102160.63;;;12.74;47.78
16120;BME280;12670;53.502;10.252;2023-04-30T09:02:15;102155.19;;;12.79;47.34
16120;BME280;12670;53.502;10.252;2023-04-30T09:05:18;102152.25;;;13.18;47.29
16120;BME280;12670;53.502;10.252;2023-04-30T09:08:43;102158.59;;;12.84;47.49
16120;BME280;12670;53.502;10.252;2023-04-30T09:11:47;102156.84;;;13.42;48.17
16120;BME280;12670;53.502;10.252;2023-04-30T09:15:00;102158.88;;;13.04;44.39
16120;BME280;12670;53.502;10.252;2023-04-30T09:18:08;102157.75;;;13.12;46.55
16120;BME280;12670;53.502;10.252;2023-04-30T09:21:11;102157.22;;;13.31;45.04
16120;BME280;12670;53.502;10.252;2023-04-30T09:24:15;102158.28;;;13.26;44.25
16120;BME280;12670;53.502;10.252;2023-04-30T09:27:21;102154.84;;;13.50;44.82
16120;BME280;12670;53.502;10.252;2023-04-30T09:30:29;102152.44;;;13.41;42.73
16120;BME280;12670;53.502;10.252;2023-04-30T09:33:44;102156.50;;;13.54;46.50
16120;BME280;12670;53.502;10.252;2023-04-30T09:36:51;102154.69;;;14.09;44.35
16120;BME280;12670;53.502;10.252;2023-04-30T09:39:56;102154.41;;;14.42;45.23
16120;BME280;12670;53.502;10.252;2023-04-30T09:42:59;102165.97;;;13.91;43.24
16120;BME280;12670;53.502;10.252;2023-04-30T09:46:02;102155.81;;;14.02;42.83
16120;BME280;12670;53.502;10.252;2023-04-30T09:49:05;102142.84;;;14.68;44.30
16120;BME280;12670;53.502;10.252;2023-04-30T09:52:08;102138.47;;;14.65;43.36
16120;BME280;12670;53.502;10.252;2023-04-30T09:55:13;102132.41;;;14.85;41.84
16120;BME280;12670;53.502;10.252;2023-04-30T09:58:17;102141.97;;;14.43;41.65
16120;BME280;12670;53.502;10.252;2023-04-30T10:01:22;102135.13;;;14.60;43.32
16120;BME280;12670;53.502;10.252;2023-04-30T10:04:27;102136.25;;;14.53;42.28
16120;BME280;12670;53.502;10.252;2023-04-30T10:07:33;102130.47;;;14.89;41.83
16120;BME280;12670;53.502;10.252;2023-04-30T10:10:39;102122.59;;;14.86;43.29
16120;BME280;12670;53.502;10.252;2023-04-30T10:13:50;102116.16;;;15.59;40.43
16120;BME280;12670;53.502;10.252;2023-04-30T10:16:56;102109.56;;;15.45;40.45
16120;BME280;12670;53.502;10.252;2023-04-30T10:20:02;102113.50;;;15.37;40.49
16120;BME280;12670;53.502;10.252;2023-04-30T10:23:06;102111.03;;;15.53;39.52
16120;BME280;12670;53.502;10.252;2023-04-30T10:26:11;102113.25;;;16.27;40.85
16120;BME280;12670;53.502;10.252;2023-04-30T10:29:14;102118.53;;;16.29;38.63
16120;BME280;12670;53.502;10.252;2023-04-30T10:32:18;102108.81;;;16.06;39.92
16120;BME280;12670;53.502;10.252;2023-04-30T10:35:25;102116.00;;;16.46;39.11
16120;BME280;12670;53.502;10.252;2023-04-30T10:38:29;102107.00;;;17.07;41.27
16120;BME280;12670;53.502;10.252;2023-04-30T10:41:34;102106.56;;;17.71;39.49
16120;BME280;12670;53.502;10.252;2023-04-30T10:44:36;102099.75;;;18.00;36.94
16120;BME280;12670;53.502;10.252;2023-04-30T10:47:41;102103.19;;;17.49;36.60
16120;BME280;12670;53.502;10.252;2023-04-30T10:50:44;102096.63;;;17.73;37.17
16120;BME280;12670;53.502;10.252;2023-04-30T10:53:48;102097.22;;;17.61;37.46
16120;BME280;12670;53.502;10.252;2023-04-30T10:56:53;102084.41;;;18.20;37.67
16120;BME280;12670;53.502;10.252;2023-04-30T11:00:19;102084.66;;;17.62;35.56
16120;BME280;12670;53.502;10.252;2023-04-30T11:03:22;102084.53;;;17.82;35.56
16120;BME280;12670;53.502;10.252;2023-04-30T11:06:25;102078.16;;;18.19;35.93
16120;BME280;12670;53.502;10.252;2023-04-30T11:09:48;102077.41;;;18.50;35.90
16120;BME280;12670;53.502;10.252;2023-04-30T11:12:54;102080.31;;;19.12;35.62
16120;BME280;12670;53.502;10.252;2023-04-30T11:16:01;102065.97;;;19.27;34.09
16120;BME280;12670;53.502;10.252;2023-04-30T11:19:05;102069.56;;;19.74;35.10
16120;BME280;12670;53.502;10.252;2023-04-30T11:22:16;102073.47;;;19.84;33.83
16120;BME280;12670;53.502;10.252;2023-04-30T11:25:21;102059.97;;;18.90;31.84
16120;BME280;12670;53.502;10.252;2023-04-30T11:28:25;102066.44;;;18.37;34.74
16120;BME280;12670;53.502;10.252;2023-04-30T11:31:32;102069.97;;;19.36;36.01
16120;BME280;12670;53.502;10.252;2023-04-30T11:34:36;102070.88;;;19.82;33.20
16120;BME280;12670;53.502;10.252;2023-04-30T11:37:40;102062.31;;;19.44;33.55
16120;BME280;12670;53.502;10.252;2023-04-30T11:40:44;102067.38;;;19.80;32.82
16120;BME280;12670;53.502;10.252;2023-04-30T11:43:50;102065.31;;;19.69;32.64
16120;BME280;12670;53.502;10.252;2023-04-30T11:46:53;102055.38;;;19.86;32.53
16120;BME280;12670;53.502;10.252;2023-04-30T11:49:56;102052.88;;;19.21;31.49
16120;BME280;12670;53.502;10.252;2023-04-30T11:52:59;102050.09;;;19.98;33.99
16120;BME280;12670;53.502;10.252;2023-04-30T11:56:04;102055.97;;;19.61;33.19
16120;BME280;12670;53.502;10.252;2023-04-30T11:59:11;102052.31;;;19.62;32.18
16120;BME280;12670;53.502;10.252;2023-04-30T12:02:14;102048.41;;;20.12;33.03
16120;BME280;12670;53.502;10.252;2023-04-30T12:05:20;102058.59;;;20.07;32.06
16120;BME280;12670;53.502;10.252;2023-04-30T12:08:23;102043.94;;;19.82;31.04
16120;BME280;12670;53.502;10.252;2023-04-30T12:11:27;102042.19;;;20.83;31.30
16120;BME280;12670;53.502;10.252;2023-04-30T12:14:31;102046.34;;;20.88;30.50
16120;BME280;12670;53.502;10.252;2023-04-30T12:17:36;102042.59;;;20.76;29.29
16120;BME280;12670;53.502;10.252;2023-04-30T12:20:39;102034.06;;;20.97;31.60
16120;BME280;12670;53.502;10.252;2023-04-30T12:23:43;102030.84;;;21.46;29.00
16120;BME280;12670;53.502;10.252;2023-04-30T12:26:46;102035.38;;;21.04;30.38
16120;BME280;12670;53.502;10.252;2023-04-30T12:29:50;102024.69;;;21.17;31.20
16120;BME280;12670;53.502;10.252;2023-04-30T12:32:58;102023.75;;;21.58;30.84
16120;BME280;12670;53.502;10.252;2023-04-30T12:36:01;102019.16;;;20.34;30.41
16120;BME280;12670;53.502;10.252;2023-04-30T12:39:07;102023.63;;;20.49;30.02
16120;BME280;12670;53.502;10.252;2023-04-30T12:42:10;102016.25;;;20.94;30.29
16120;BME280;12670;53.502;10.252;2023-04-30T12:45:46;102021.41;;;21.12;31.01
16120;BME280;12670;53.502;10.252;2023-04-30T12:48:53;102018.72;;;21.12;29.83
16120;BME280;12670;53.502;10.252;2023-04-30T12:51:58;102017.72;;;20.43;29.78
16120;BME280;12670;53.502;10.252;2023-04-30T12:55:13;102007.50;;;21.18;29.89
16120;BME280;12670;53.502;10.252;2023-04-30T12:58:16;102004.25;;;20.43;30.47
16120;BME280;12670;53.502;10.252;2023-04-30T13:01:22;101998.34;;;21.47;30.94
16120;BME280;12670;53.502;10.252;2023-04-30T13:04:25;102000.84;;;21.50;29.87
16120;BME280;12670;53.502;10.252;2023-04-30T13:07:35;101991.44;;;21.43;32.58
16120;BME280;12670;53.502;10.252;2023-04-30T13:10:39;101986.75;;;21.98;29.28
16120;BME280;12670;53.502;10.252;2023-04-30T13:13:41;101980.41;;;22.12;28.26
16120;BME280;12670;53.502;10.252;2023-04-30T13:16:45;101976.94;;;22.09;29.70
16120;BME280;12670;53.502;10.252;2023-04-30T13:19:49;101978.63;;;21.98;29.81
16120;BME280;12670;53.502;10.252;2023-04-30T13:22:51;101987.03;;;21.55;27.89
16120;BME280;12670;53.502;10.252;2023-04-30T13:25:54;101976.66;;;21.62;28.84
16120;BME280;12670;53.502;10.252;2023-04-30T13:28:57;101977.03;;;20.47;31.01
16120;BME280;12670;53.502;10.252;2023-04-30T13:32:01;101975.63;;;21.10;30.44
16120;BME280;12670;53.502;10.252;2023-04-30T13:35:05;101966.00;;;21.33;30.25
16120;BME280;12670;53.502;10.252;2023-04-30T13:38:08;101966.97;;;21.32;28.32
16120;BME280;12670;53.502;10.252;2023-04-30T13:41:12;101965.69;;;21.11;30.00
16120;BME280;12670;53.502;10.252;2023-04-30T13:44:15;101969.41;;;21.49;30.28
16120;BME280;12670;53.502;10.252;2023-04-30T13:47:19;101956.50;;;21.00;29.36
16120;BME280;12670;53.502;10.252;2023-04-30T13:50:22;101956.66;;;21.12;29.25
16120;BME280;12670;53.502;10.252;2023-04-30T13:53:25;101953.34;;;20.94;29.60
16120;BME280;12670;53.502;10.252;2023-04-30T13:56:28;101957.72;;;20.68;30.81
16120;BME280;12670;53.502;10.252;2023-04-30T13:59:30;101944.22;;;20.82;29.49
16120;BME280;12670;53.502;10.252;2023-04-30T14:02:34;101953.66;;;20.75;28.54
16120;BME280;12670;53.502;10.252;2023-04-30T14:05:37;101941.06;;;20.75;29.85
16120;BME280;12670;53.502;10.252;2023-04-30T14:08:40;101944.56;;;18.38;30.54
16120;BME280;12670;53.502;10.252;2023-04-30T14:11:43;101937.75;;;20.01;32.13
16120;BME280;12670;53.502;10.252;2023-04-30T14:14:45;101936.88;;;20.84;30.76
16120;BME280;12670;53.502;10.252;2023-04-30T14:17:49;101935.16;;;20.83;29.51
16120;BME280;12670;53.502;10.252;2023-04-30T14:20:53;101927.53;;;20.48;28.32
16120;BME280;12670;53.502;10.252;2023-04-30T14:23:55;101928.53;;;20.47;29.51
16120;BME280;12670;53.502;10.252;2023-04-30T14:26:58;101930.25;;;20.20;29.28
16120;BME280;12670;53.502;10.252;2023-04-30T14:30:03;101920.03;;;19.68;28.60
16120;BME280;12670;53.502;10.252;2023-04-30T14:33:07;101913.03;;;19.35;29.04
16120;BME280;12670;53.502;10.252;2023-04-30T14:36:12;101915.53;;;19.23;28.65
16120;BME280;12670;53.502;10.252;2023-04-30T14:39:15;101905.44;;;19.12;29.51
16120;BME280;12670;53.502;10.252;2023-04-30T14:42:17;101909.56;;;18.87;30.22
16120;BME280;12670;53.502;10.252;2023-04-30T14:45:20;101903.81;;;18.15;31.21
16120;BME280;12670;53.502;10.252;2023-04-30T14:48:25;101901.03;;;18.00;33.13
16120;BME280;12670;53.502;10.252;2023-04-30T14:51:28;101902.50;;;17.73;32.32
16120;BME280;12670;53.502;10.252;2023-04-30T14:54:31;101905.09;;;17.22;32.70
16120;BME280;12670;53.502;10.252;2023-04-30T14:57:33;101903.22;;;17.07;33.50
16120;BME280;12670;53.502;10.252;2023-04-30T15:00:36;101898.31;;;16.43;33.37
16120;BME280;12670;53.502;10.252;2023-04-30T15:03:40;101890.00;;;16.30;33.61
16120;BME280;12670;53.502;10.252;2023-04-30T15:06:43;101899.97;;;16.45;34.70
16120;BME280;12670;53.502;10.252;2023-04-30T15:09:46;101881.66;;;16.91;33.98
16120;BME280;12670;53.502;10.252;2023-04-30T15:12:49;101880.81;;;17.08;33.40
16120;BME280;12670;53.502;10.252;2023-04-30T15:15:52;101875.59;;;17.40;35.24
16120;BME280;12670;53.502;10.252;2023-04-30T15:18:56;101884.41;;;16.72;33.39
16120;BME280;12670;53.502;10.252;2023-04-30T15:21:58;101878.81;;;17.12;33.50
16120;BME280;12670;53.502;10.252;2023-04-30T15:25:01;101882.63;;;17.08;33.46
16120;BME280;12670;53.502;10.252;2023-04-30T15:28:04;101884.13;;;17.30;34.42
16120;BME280;12670;53.502;10.252;2023-04-30T15:31:07;101869.00;;;17.12;34.51
16120;BME280;12670;53.502;10.252;2023-04-30T15:34:13;101874.88;;;16.84;32.30
16120;BME280;12670;53.502;10.252;2023-04-30T15:37:15;101867.53;;;17.05;33.05
16120;BME280;12670;53.502;10.252;2023-04-30T15:40:18;101867.63;;;17.03;32.60
16120;BME280;12670;53.502;10.252;2023-04-30T15:43:21;101864.00;;;16.68;32.73
16120;BME280;12670;53.502;10.252;2023-04-30T15:46:24;101868.00;;;16.78;33.49
16120;BME280;12670;53.502;10.252;2023-04-30T15:49:28;101859.44;;;17.07;33.57
16120;BME280;12670;53.502;10.252;2023-04-30T15:52:30;101852.59;;;17.18;32.89
16120;BME280;12670;53.502;10.252;2023-04-30T15:55:33;101855.09;;;17.21;32.36
16120;BME280;12670;53.502;10.252;2023-04-30T15:58:35;101850.03;;;17.32;32.97